Time;durP1;ratioP1;P1;durP2;ratioP2;P2;SDS_P1;SDS_P2;PMS_P1;PMS_P2;Temp;Humidity;BMP_temperature;BMP_pressure;BME280_temperature;BME280_humidity;BME280_pressure;Samples;Min_cycle;Max_cycle;Signal;HPM_P1;HPM_P2
2022/10/12 00:00:51;;;;;;;42.22;23.23;;;;;;;10.44;100.00;93606.41;2121987;27;20058;-70
2022/10/12 00:01:52;;;;;;;42.17;25.90;;;;;;;10.46;100.00;93606.03;2122446;27;20135;-69
2022/10/12 00:02:53;;;;;;;34.67;23.42;;;;;;;10.47;100.00;93599.50;2122377;27;20587;-70
2022/10/12 00:03:54;;;;;;;38.88;23.33;;;;;;;10.48;100.00;93595.69;2122298;27;20031;-69
2022/10/12 00:04:54;;;;;;;33.90;23.70;;;;;;;10.45;100.00;93599.94;2121078;27;20034;-69
2022/10/12 00:06:09;;;;;;;40.92;24.40;;;;;;;10.40;100.00;93596.94;2121870;27;20023;-70
2022/10/12 00:07:10;;;;;;;40.22;24.30;;;;;;;10.43;100.00;93601.47;2122377;27;20350;-69
2022/10/12 00:08:12;;;;;;;42.03;24.83;;;;;;;10.40;100.00;93600.34;2122295;27;20069;-70
2022/10/12 00:09:13;;;;;;;37.05;23.08;;;;;;;10.42;100.00;93606.06;2113762;28;20031;-69
2022/10/12 00:10:14;;;;;;;41.70;24.60;;;;;;;10.42;100.00;93599.97;2121661;27;20483;-69
2022/10/12 00:11:23;;;;;;;38.10;24.05;;;;;;;10.45;100.00;93599.19;2122101;27;20487;-69
2022/10/12 00:12:24;;;;;;;34.53;23.45;;;;;;;10.43;100.00;93596.88;2122330;27;20457;-69
2022/10/12 00:13:26;;;;;;;42.97;24.63;;;;;;;10.43;100.00;93596.13;2121962;27;20070;-69
2022/10/12 00:14:27;;;;;;;39.67;23.98;;;;;;;10.43;100.00;93594.22;2121766;27;20031;-69
2022/10/12 00:15:28;;;;;;;38.35;23.08;;;;;;;10.45;100.00;93593.84;2120560;27;20066;-69
2022/10/12 00:16:30;;;;;;;42.70;23.08;;;;;;;10.46;100.00;93598.75;2122248;27;20027;-69
2022/10/12 00:17:31;;;;;;;35.33;23.83;;;;;;;10.47;100.00;93596.84;2122168;27;20031;-69
2022/10/12 00:18:33;;;;;;;36.70;23.10;;;;;;;10.48;100.00;93593.75;2121615;27;20054;-69
2022/10/12 00:19:34;;;;;;;37.35;22.77;;;;;;;10.47;100.00;93604.88;2112636;28;20027;-70
2022/10/12 00:20:35;;;;;;;39.25;21.23;;;;;;;10.47;100.00;93597.59;2113064;28;20027;-70
2022/10/12 00:21:37;;;;;;;35.83;20.02;;;;;;;10.46;100.00;93590.75;2122006;27;20027;-70
2022/10/12 00:22:38;;;;;;;31.85;20.75;;;;;;;10.49;100.00;93603.31;2122043;27;20492;-70
2022/10/12 00:23:40;;;;;;;36.50;20.92;;;;;;;10.54;100.00;93592.16;2121618;27;20084;-69
2022/10/12 00:24:41;;;;;;;35.17;20.92;;;;;;;10.51;100.00;93600.97;2121549;27;20019;-70
2022/10/12 00:25:42;;;;;;;34.63;20.90;;;;;;;10.47;100.00;93594.94;2121462;27;20027;-70
2022/10/12 00:26:43;;;;;;;31.55;19.80;;;;;;;10.50;100.00;93594.13;2113662;28;20066;-70
2022/10/12 00:27:45;;;;;;;36.63;22.90;;;;;;;10.45;100.00;93596.50;2122066;27;20099;-71
2022/10/12 00:28:47;;;;;;;35.45;21.08;;;;;;;10.43;100.00;93593.47;2122271;27;20031;-70
2022/10/12 00:29:48;;;;;;;36.28;19.67;;;;;;;10.45;100.00;93591.91;2121848;27;20030;-70
2022/10/12 00:30:49;;;;;;;32.42;20.05;;;;;;;10.42;100.00;93594.63;2121115;27;20062;-70
2022/10/12 00:31:50;;;;;;;33.33;20.10;;;;;;;10.44;100.00;93595.72;2112942;28;20139;-69
2022/10/12 00:32:51;;;;;;;33.80;20.50;;;;;;;10.50;100.00;93594.13;2112971;28;20028;-69
2022/10/12 00:33:52;;;;;;;31.52;19.80;;;;;;;10.54;100.00;93596.75;2122059;27;20031;-70
2022/10/12 00:34:53;;;;;;;32.88;20.05;;;;;;;10.63;100.00;93596.25;2121300;27;20051;-70
2022/10/12 00:35:54;;;;;;;31.20;19.75;;;;;;;10.51;100.00;93590.28;2121146;27;20358;-70
2022/10/12 00:36:55;;;;;;;30.73;19.52;;;;;;;10.45;100.00;93591.16;2121998;27;20621;-70
2022/10/12 00:37:56;;;;;;;31.27;19.75;;;;;;;10.43;100.00;93596.88;2122195;27;20346;-70
2022/10/12 00:38:58;;;;;;;31.58;19.27;;;;;;;10.43;100.00;93594.22;2121989;27;20034;-70
2022/10/12 00:39:59;;;;;;;29.13;19.58;;;;;;;10.40;100.00;93600.34;2121898;27;20034;-71
2022/10/12 00:41:00;;;;;;;34.25;19.90;;;;;;;10.42;100.00;93594.63;2121436;27;20102;-70
2022/10/12 00:42:01;;;;;;;31.05;19.35;;;;;;;10.35;100.00;93590.13;2120881;27;20083;-70
2022/10/12 00:43:03;;;;;;;30.50;19.42;;;;;;;10.43;100.00;93593.47;2122026;27;20023;-70
2022/10/12 00:44:43;;;;;;;32.08;19.75;;;;;;;10.43;100.00;93591.53;2122003;27;20096;-71
2022/10/12 00:45:44;;;;;;;31.58;19.70;;;;;;;10.45;100.00;93589.25;2108798;28;20480;-70
2022/10/12 00:46:45;;;;;;;31.90;18.90;;;;;;;10.45;100.00;93591.91;2112120;28;20363;-71
2022/10/12 00:47:54;;;;;;;35.75;19.83;;;;;;;10.43;100.00;93593.47;2121805;27;20066;-71
2022/10/12 00:49:11;;;;;;;35.72;19.83;;;;;;;10.46;100.00;93590.75;2122633;27;20027;-71
2022/10/12 00:50:26;;;;;;;32.35;19.40;;;;;;;10.46;100.00;93590.00;2122411;27;20100;-70
2022/10/12 00:51:27;;;;;;;31.88;19.70;;;;;;;10.40;100.00;93592.34;2119584;27;20500;-71
2022/10/12 00:52:38;;;;;;;31.10;19.30;;;;;;;10.36;100.00;93588.19;2112435;28;20775;-70
2022/10/12 00:53:43;;;;;;;35.50;19.92;;;;;;;10.35;100.00;93587.44;2113785;27;20095;-71
2022/10/12 00:54:47;;;;;;;34.17;20.25;;;;;;;10.36;100.00;93594.31;2117390;27;20055;-71
2022/10/12 00:56:00;;;;;;;34.75;20.20;;;;;;;10.41;100.00;93596.53;2120805;27;20412;-71
2022/10/12 00:57:03;;;;;;;38.72;19.63;;;;;;;10.42;100.00;93595.38;2121636;27;20076;-71
2022/10/12 00:58:07;;;;;;;33.15;19.35;;;;;;;10.34;100.00;93601.97;2121957;27;20034;-70
2022/10/12 00:59:14;;;;;;;32.33;19.95;;;;;;;10.33;100.00;93603.13;2121525;27;20081;-70
2022/10/12 01:00:16;;;;;;;33.30;20.67;;;;;;;10.37;100.00;93598.50;2117543;27;20027;-70
2022/10/12 01:01:17;;;;;;;35.83;19.48;;;;;;;10.42;100.00;93598.06;2121837;27;20031;-70
2022/10/12 01:02:22;;;;;;;32.65;20.60;;;;;;;10.39;100.00;93604.19;2121855;27;20046;-70
2022/10/12 01:03:23;;;;;;;31.48;20.58;;;;;;;10.34;100.00;93599.31;2121195;27;20470;-70
2022/10/12 01:04:25;;;;;;;35.63;20.80;;;;;;;10.35;100.00;93595.47;2121636;27;20023;-70
2022/10/12 01:05:27;;;;;;;33.20;19.67;;;;;;;10.38;100.00;93592.00;2121537;27;20468;-69
2022/10/12 01:06:29;;;;;;;31.42;20.00;;;;;;;10.41;100.00;93588.53;2121988;27;20023;-70
2022/10/12 01:07:30;;;;;;;38.10;21.52;;;;;;;10.44;100.00;93586.94;2121806;27;20082;-69
2022/10/12 01:08:32;;;;;;;33.80;20.50;;;;;;;10.42;100.00;93599.97;2121177;27;20091;-70
2022/10/12 01:09:33;;;;;;;35.13;21.90;;;;;;;10.36;100.00;93588.19;2121775;27;20035;-70
2022/10/12 01:10:34;;;;;;;32.00;19.83;;;;;;;10.43;100.00;93596.13;2121209;27;20868;-70
2022/10/12 01:11:35;;;;;;;30.65;20.08;;;;;;;10.43;100.00;93588.88;2121436;27;20027;-70
2022/10/12 01:12:39;;;;;;;31.92;20.35;;;;;;;10.48;100.00;93595.69;2121947;27;20037;-70
2022/10/12 01:13:40;;;;;;;34.05;20.90;;;;;;;10.45;100.00;93591.91;2118439;27;20034;-69
2022/10/12 01:14:41;;;;;;;34.45;19.95;;;;;;;10.43;100.00;93596.13;2121522;27;20102;-69
2022/10/12 01:15:52;;;;;;;31.90;20.40;;;;;;;10.44;100.00;93600.31;2121356;27;20030;-69
2022/10/12 01:17:23;;;;;;;31.08;20.50;;;;;;;10.44;100.00;93593.06;2109326;28;20340;-70
2022/10/12 01:19:00;;;;;;;30.50;19.67;;;;;;;10.40;100.00;93603.03;2113297;27;20034;-70
2022/10/12 01:20:20;;;;;;;33.10;19.70;;;;;;;10.32;100.00;93607.72;2120064;27;20033;-70
2022/10/12 01:21:22;;;;;;;31.42;19.08;;;;;;;10.44;100.00;93600.31;2118575;27;20547;-69
2022/10/12 01:22:24;;;;;;;29.70;18.55;;;;;;;10.42;100.00;93592.72;2118274;27;20424;-69
2022/10/12 01:24:01;;;;;;;34.45;19.73;;;;;;;10.41;100.00;93599.22;2119727;27;20208;-70
2022/10/12 01:25:26;;;;;;;33.92;19.92;;;;;;;10.37;100.00;93605.78;2120151;27;20027;-70
2022/10/12 01:26:39;;;;;;;34.60;19.58;;;;;;;10.40;100.00;93607.63;2119894;27;20031;-69
2022/10/12 01:27:51;;;;;;;31.38;18.85;;;;;;;10.36;100.00;93598.88;2121150;27;20109;-69
2022/10/12 01:29:23;;;;;;;30.17;19.33;;;;;;;10.37;100.00;93597.75;2116331;27;20070;-69
2022/10/12 01:30:33;;;;;;;29.20;18.98;;;;;;;10.30;100.00;93598.59;2118912;27;20027;-69
2022/10/12 01:31:50;;;;;;;29.20;19.88;;;;;;;10.31;100.00;93598.19;2121519;27;20034;-69
2022/10/12 01:33:24;;;;;;;34.53;20.58;;;;;;;10.32;100.00;93593.63;2121633;27;20039;-70
2022/10/12 01:34:58;;;;;;;30.02;19.00;;;;;;;10.53;100.00;93590.63;2101815;27;20043;-70
2022/10/12 01:36:09;;;;;;;35.17;18.67;;;;;;;10.46;100.00;93587.31;2115419;27;20081;-70
2022/10/12 01:37:45;;;;;;;31.92;20.45;;;;;;;10.51;100.00;93589.53;2121593;27;20050;-70
2022/10/12 01:39:03;;;;;;;37.22;20.30;;;;;;;10.35;100.00;93587.44;2117770;27;20030;-70
2022/10/12 01:40:10;;;;;;;35.30;20.23;;;;;;;10.36;100.00;93590.88;2119863;27;20030;-70
2022/10/12 01:41:23;;;;;;;31.95;20.38;;;;;;;10.36;100.00;93583.63;2121387;27;20031;-70
2022/10/12 01:42:33;;;;;;;31.00;20.48;;;;;;;10.44;100.00;93593.06;2119008;27;20087;-69
2022/10/12 01:43:40;;;;;;;38.90;22.23;;;;;;;10.49;100.00;93583.81;2122247;27;20031;-70
2022/10/12 01:44:41;;;;;;;37.35;21.45;;;;;;;10.40;100.00;93588.91;2121100;27;20027;-69
2022/10/12 01:45:42;;;;;;;38.25;21.80;;;;;;;10.31;100.00;93587.50;2121149;27;20031;-69
2022/10/12 01:46:43;;;;;;;30.63;21.35;;;;;;;10.32;100.00;93585.59;2116956;27;20469;-69
2022/10/12 01:47:51;;;;;;;38.65;22.77;;;;;;;10.33;100.00;93579.09;2121561;27;20035;-70
2022/10/12 01:48:56;;;;;;;35.25;21.60;;;;;;;10.32;100.00;93582.94;2121473;27;20031;-69
2022/10/12 01:49:58;;;;;;;35.80;21.52;;;;;;;10.29;100.00;93581.81;2115097;27;20358;-69
2022/10/12 01:51:01;;;;;;;40.38;21.55;;;;;;;10.31;100.00;93581.38;2110370;28;20027;-70
2022/10/12 01:52:26;;;;;;;30.98;20.33;;;;;;;10.28;100.00;93579.53;2112172;28;20031;-69
2022/10/12 01:53:49;;;;;;;35.22;21.23;;;;;;;10.40;100.00;93581.66;2114768;27;20035;-70
2022/10/12 01:55:25;;;;;;;38.58;21.15;;;;;;;10.47;100.00;93583.47;2113865;28;20084;-70
2022/10/12 01:56:42;;;;;;;32.25;20.27;;;;;;;10.43;100.00;93580.09;2088970;28;20478;-70
2022/10/12 01:57:58;;;;;;;31.52;19.58;;;;;;;10.34;100.00;93576.00;2116803;27;20030;-69
2022/10/12 01:59:17;;;;;;;35.22;18.90;;;;;;;10.30;100.00;93588.66;2121114;27;20057;-69
2022/10/12 02:00:19;;;;;;;29.23;18.88;;;;;;;10.27;100.00;93586.03;2118123;27;20087;-70
2022/10/12 02:01:45;;;;;;;33.08;18.77;;;;;;;10.21;100.00;93590.28;2121459;27;20019;-70
2022/10/12 02:03:13;;;;;;;31.67;19.33;;;;;;;10.31;100.00;93587.50;2117465;27;20487;-70
2022/10/12 02:04:22;;;;;;;33.75;19.23;;;;;;;10.32;100.00;93588.28;2116819;27;20035;-70
2022/10/12 02:05:36;;;;;;;30.83;19.65;;;;;;;10.24;100.00;93581.47;2120209;27;20043;-70
2022/10/12 02:06:44;;;;;;;30.33;19.17;;;;;;;10.27;100.00;93586.81;2121209;27;20038;-70
2022/10/12 02:08:14;;;;;;;35.22;20.55;;;;;;;10.26;100.00;93581.84;2117400;27;20034;-69
2022/10/12 02:09:26;;;;;;;;;;;;;;;10.55;100.00;93582.97;2117752;27;20758;-70
2022/10/12 02:10:47;;;;;;;30.00;18.70;;;;;;;10.43;100.00;93580.09;2119263;27;20330;-70
2022/10/12 02:11:51;;;;;;;28.92;17.58;;;;;;;10.46;100.00;93579.31;2117987;27;20027;-70
2022/10/12 02:12:55;;;;;;;36.08;20.90;;;;;;;10.32;100.00;93578.34;2121126;28;20095;-69
2022/10/12 02:14:13;;;;;;;36.70;19.80;;;;;;;10.29;100.00;93578.38;2121633;27;20027;-70
2022/10/12 02:15:16;;;;;;;32.25;19.40;;;;;;;10.28;100.00;93582.22;2116780;28;20484;-69
2022/10/12 02:16:19;;;;;;;29.60;20.67;;;;;;;10.27;100.00;93580.69;2112004;28;20055;-70
2022/10/12 02:17:22;;;;;;;39.78;21.63;;;;;;;10.26;100.00;93579.16;2113274;28;20065;-70
2022/10/12 02:18:23;;;;;;;33.63;20.75;;;;;;;10.26;100.00;93571.91;2113276;28;20047;-69
2022/10/12 02:19:28;;;;;;;32.55;21.45;;;;;;;10.26;100.00;93574.59;2112938;28;20031;-69
2022/10/12 02:20:31;;;;;;;34.30;21.02;;;;;;;10.21;100.00;93575.00;2112243;28;20699;-70
2022/10/12 02:21:34;;;;;;;38.65;21.40;;;;;;;10.22;100.00;93578.44;2112461;28;20074;-69
2022/10/12 02:22:42;;;;;;;34.67;21.02;;;;;;;10.24;100.00;93578.81;2112675;28;20032;-70
2022/10/12 02:23:46;;;;;;;31.20;19.40;;;;;;;10.24;100.00;93568.91;2108701;28;20465;-69
2022/10/12 02:24:51;;;;;;;40.67;21.65;;;;;;;10.29;100.00;93573.78;2112593;28;20023;-70
2022/10/12 02:25:52;;;;;;;32.63;19.55;;;;;;;10.27;100.00;93564.66;2112264;28;20032;-70
2022/10/12 02:26:55;;;;;;;35.08;20.25;;;;;;;10.31;100.00;93568.03;2112433;28;20081;-70
2022/10/12 02:28:04;;;;;;;40.15;20.42;;;;;;;10.30;100.00;93574.53;2103343;28;20031;-69
2022/10/12 02:29:08;;;;;;;32.85;19.95;;;;;;;10.44;100.00;93565.56;2104992;28;20114;-70
2022/10/12 02:30:10;;;;;;;31.05;18.60;;;;;;;10.30;100.00;93569.94;2112824;28;20104;-70
2022/10/12 02:31:46;;;;;;;39.05;21.02;;;;;;;10.28;100.00;93569.59;2109763;28;20032;-70
2022/10/12 02:32:57;;;;;;;36.05;19.00;;;;;;;10.26;100.00;93568.47;2095728;28;20077;-70
2022/10/12 02:34:10;;;;;;;35.30;19.38;;;;;;;10.23;100.00;93563.94;2105456;28;20024;-70
2022/10/12 02:35:22;;;;;;;34.38;19.90;;;;;;;10.25;100.00;93566.97;2112413;28;20098;-70
2022/10/12 02:36:35;;;;;;;34.10;18.77;;;;;;;10.26;100.00;93568.47;2109092;28;20036;-70
2022/10/12 02:37:42;;;;;;;34.22;19.80;;;;;;;10.24;100.00;93563.56;2112831;28;20544;-70
2022/10/12 02:39:11;;;;;;;34.97;20.15;;;;;;;10.27;100.00;93564.66;2108786;28;20035;-70
2022/10/12 02:40:32;;;;;;;36.92;19.88;;;;;;;10.26;100.00;93571.16;2112420;28;20039;-70
2022/10/12 02:41:46;;;;;;;31.85;18.40;;;;;;;10.27;100.00;93564.66;2110767;28;20615;-70
2022/10/12 02:42:56;;;;;;;34.25;19.35;;;;;;;10.28;100.00;93564.25;2109189;28;20032;-70
2022/10/12 02:44:00;;;;;;;40.03;19.35;;;;;;;10.24;100.00;93566.22;2112474;28;20020;-70
2022/10/12 02:45:05;;;;;;;37.60;19.05;;;;;;;10.26;100.00;93565.81;2111933;28;20148;-69
2022/10/12 02:46:09;;;;;;;38.97;19.88;;;;;;;10.27;100.00;93572.66;2112511;28;20126;-70
2022/10/12 02:47:11;;;;;;;36.60;19.50;;;;;;;10.26;100.00;93563.91;2112347;28;20077;-70
2022/10/12 02:48:19;;;;;;;28.23;18.33;;;;;;;10.26;100.00;93563.13;2112584;28;20114;-70
2022/10/12 02:49:23;;;;;;;32.35;18.73;;;;;;;10.21;100.00;93567.00;2109390;28;20545;-70
2022/10/12 02:50:25;;;;;;;32.78;18.42;;;;;;;10.26;100.00;93569.25;2112854;28;20418;-70
2022/10/12 02:51:28;;;;;;;30.80;18.80;;;;;;;10.27;100.00;93565.44;2112227;28;20036;-70
2022/10/12 02:52:32;;;;;;;35.97;19.52;;;;;;;10.48;100.00;93563.59;2111499;28;20413;-70
2022/10/12 02:53:33;;;;;;;30.92;18.65;;;;;;;10.35;100.00;93566.06;2112040;28;20051;-69
2022/10/12 02:54:35;;;;;;;28.17;18.98;;;;;;;10.36;100.00;93564.16;2112338;28;20050;-70
2022/10/12 02:55:45;;;;;;;31.20;19.13;;;;;;;10.32;100.00;93564.22;2112617;28;20031;-70
2022/10/12 02:56:46;;;;;;;39.72;18.58;;;;;;;10.30;100.00;93571.88;2108498;28;20027;-70
2022/10/12 02:57:47;;;;;;;30.75;18.35;;;;;;;10.29;100.00;93565.03;2111762;28;20031;-69
2022/10/12 02:58:48;;;;;;;33.05;18.15;;;;;;;10.25;100.00;93561.63;2112336;28;20047;-69
2022/10/12 02:59:49;;;;;;;32.85;17.92;;;;;;;10.28;100.00;93566.19;2112843;28;20038;-70
2022/10/12 03:00:52;;;;;;;32.85;18.73;;;;;;;10.26;100.00;93563.91;2111946;28;20039;-70
2022/10/12 03:01:53;;;;;;;28.60;18.17;;;;;;;10.24;100.00;93560.88;2112767;28;20028;-69
2022/10/12 03:02:54;;;;;;;33.17;18.65;;;;;;;10.24;100.00;93562.78;2108643;28;20062;-69
2022/10/12 03:03:56;;;;;;;28.80;18.13;;;;;;;10.29;100.00;93568.44;2112195;28;20031;-69
2022/10/12 03:04:57;;;;;;;33.05;19.25;;;;;;;10.27;100.00;93564.66;2103383;28;20054;-70
2022/10/12 03:05:57;;;;;;;32.70;18.13;;;;;;;10.25;100.00;93564.31;2103466;28;20073;-69
2022/10/12 03:06:58;;;;;;;31.55;18.30;;;;;;;10.23;100.00;93558.59;2112631;28;20020;-70
2022/10/12 03:07:59;;;;;;;32.35;18.27;;;;;;;10.30;100.00;93558.50;2110085;28;20516;-70
2022/10/12 03:09:01;;;;;;;33.25;18.42;;;;;;;10.41;100.00;93561.81;2112453;28;20099;-70
2022/10/12 03:10:02;;;;;;;35.35;18.60;;;;;;;10.35;100.00;93560.72;2111966;28;20439;-69
2022/10/12 03:11:05;;;;;;;36.35;20.23;;;;;;;10.31;100.00;93562.69;2112363;28;20092;-70
2022/10/12 03:12:07;;;;;;;35.80;19.13;;;;;;;10.22;100.00;93557.06;2112577;28;20032;-70
2022/10/12 03:13:08;;;;;;;31.45;19.52;;;;;;;10.26;100.00;93558.56;2112694;28;20653;-69
2022/10/12 03:14:11;;;;;;;32.30;19.52;;;;;;;10.25;100.00;93564.31;2112377;28;20036;-70
2022/10/12 03:15:13;;;;;;;30.30;19.33;;;;;;;10.22;100.00;93565.06;2112474;28;20027;-70
2022/10/12 03:16:13;;;;;;;35.40;19.58;;;;;;;10.20;100.00;93570.06;2108456;28;20492;-69
2022/10/12 03:17:14;;;;;;;36.90;19.63;;;;;;;10.16;100.00;93562.09;2119828;28;20099;-70
2022/10/12 03:18:15;;;;;;;40.03;20.27;;;;;;;10.19;100.00;93563.22;2120365;27;20031;-70
2022/10/12 03:19:16;;;;;;;31.40;19.02;;;;;;;10.17;100.00;93560.19;2121725;27;20031;-70
2022/10/12 03:20:17;;;;;;;34.63;20.25;;;;;;;10.09;100.00;93565.59;2122724;27;20054;-69
2022/10/12 03:21:18;;;;;;;34.05;18.42;;;;;;;10.12;100.00;93566.72;2122785;27;20465;-70
2022/10/12 03:22:19;;;;;;;31.90;18.08;;;;;;;10.15;100.00;93562.50;2122114;27;20032;-69
2022/10/12 03:23:20;;;;;;;29.65;18.98;;;;;;;10.16;100.00;93558.69;2118852;27;20069;-69
2022/10/12 03:24:21;;;;;;;30.92;18.77;;;;;;;10.23;100.00;93564.69;2122553;27;20027;-70
2022/10/12 03:25:22;;;;;;;30.77;19.33;;;;;;;10.14;100.00;93563.66;2122039;27;20063;-69
2022/10/12 03:26:23;;;;;;;32.35;18.52;;;;;;;10.17;100.00;93566.28;2120170;27;20300;-70
2022/10/12 03:27:24;;;;;;;33.00;19.45;;;;;;;10.16;100.00;93556.75;2122367;27;20039;-70
2022/10/12 03:28:25;;;;;;;33.22;17.52;;;;;;;10.14;100.00;93558.31;2120652;27;20031;-69
2022/10/12 03:29:26;;;;;;;33.08;18.30;;;;;;;10.16;100.00;93559.44;2122478;27;20106;-70
2022/10/12 03:30:27;;;;;;;40.22;18.75;;;;;;;10.21;100.00;93558.22;2122575;27;20031;-70
2022/10/12 03:31:28;;;;;;;31.10;18.60;;;;;;;10.16;100.00;93562.09;2122408;27;20035;-72
2022/10/12 03:32:29;;;;;;;28.10;17.13;;;;;;;10.17;100.00;93557.50;2122631;27;20354;-71
2022/10/12 03:33:30;;;;;;;29.25;18.70;;;;;;;10.20;100.00;93562.06;2122105;27;20095;-73
2022/10/12 03:34:31;;;;;;;35.50;18.58;;;;;;;10.18;100.00;93559.78;2122550;27;20042;-71
2022/10/12 03:35:32;;;;;;;32.85;19.00;;;;;;;10.26;100.00;93566.56;2122433;27;20109;-71
2022/10/12 03:36:33;;;;;;;30.25;17.88;;;;;;;10.25;100.00;93566.97;2122752;27;20027;-71
2022/10/12 03:37:34;;;;;;;28.35;19.48;;;;;;;10.16;100.00;93559.44;2122722;27;20054;-71
2022/10/12 03:38:35;;;;;;;39.00;19.42;;;;;;;10.24;100.00;93568.13;2121278;27;20023;-71
2022/10/12 03:39:36;;;;;;;32.80;19.15;;;;;;;10.36;100.00;93564.94;2112306;28;20046;-70
2022/10/12 03:40:38;;;;;;;32.42;18.10;;;;;;;10.31;100.00;93562.69;2112786;28;20041;-70
2022/10/12 03:41:39;;;;;;;33.85;18.63;;;;;;;10.34;100.00;93564.56;2112972;28;20027;-70
2022/10/12 03:42:40;;;;;;;36.70;19.35;;;;;;;10.26;100.00;93563.13;2113470;28;20020;-72
2022/10/12 03:43:41;;;;;;;37.00;19.65;;;;;;;10.23;100.00;93562.03;2121932;27;20050;-72
2022/10/12 03:44:41;;;;;;;33.33;19.35;;;;;;;10.17;100.00;93571.63;2122332;27;20024;-70
2022/10/12 03:45:42;;;;;;;28.52;18.92;;;;;;;10.25;100.00;93570.41;2122398;27;20027;-72
2022/10/12 03:46:45;;;;;;;35.03;19.95;;;;;;;10.26;100.00;93573.84;2118492;27;20031;-70
2022/10/12 03:47:46;;;;;;;29.52;19.48;;;;;;;10.30;100.00;93569.94;2122201;27;20051;-72
2022/10/12 03:48:47;;;;;;;32.55;18.92;;;;;;;10.26;100.00;93577.25;2122035;27;20042;-71
2022/10/12 03:49:50;;;;;;;33.33;18.90;;;;;;;10.23;100.00;93570.03;2112767;28;20028;-72
2022/10/12 03:50:52;;;;;;;34.85;19.20;;;;;;;10.23;100.00;93569.28;2113457;28;20027;-71
2022/10/12 03:51:53;;;;;;;36.40;19.58;;;;;;;10.33;100.00;93565.72;2113238;28;20626;-71
2022/10/12 03:52:54;;;;;;;31.98;17.90;;;;;;;10.29;100.00;93565.03;2113699;27;20016;-70
2022/10/12 03:53:55;;;;;;;34.65;18.98;;;;;;;10.26;100.00;93573.84;2113342;28;20111;-70
2022/10/12 03:54:56;;;;;;;25.25;18.67;;;;;;;10.17;100.00;93573.53;2112370;28;20023;-70
2022/10/12 03:55:57;;;;;;;28.77;18.17;;;;;;;10.19;100.00;93573.91;2121976;27;20019;-71
2022/10/12 03:56:58;;;;;;;30.00;17.95;;;;;;;10.13;100.00;93570.16;2122284;27;20054;-71
2022/10/12 03:57:59;;;;;;;36.55;18.83;;;;;;;10.21;100.00;93569.66;2122309;27;20027;-71
2022/10/12 03:59:00;;;;;;;31.88;18.58;;;;;;;10.21;100.00;93568.91;2122464;27;20048;-74
2022/10/12 04:00:01;;;;;;;33.55;17.70;;;;;;;10.21;100.00;93568.91;2121720;27;20122;-71
2022/10/12 04:01:02;;;;;;;38.42;18.70;;;;;;;10.28;100.00;93566.94;2121815;27;20024;-72
2022/10/12 04:02:03;;;;;;;30.50;19.30;;;;;;;10.30;100.00;93567.28;2122269;27;20492;-73
2022/10/12 04:03:04;;;;;;;32.22;19.55;;;;;;;10.24;100.00;93566.22;2122399;27;20050;-73
2022/10/12 04:04:05;;;;;;;35.50;19.27;;;;;;;10.36;100.00;93570.28;2118933;27;20454;-72
2022/10/12 04:05:07;;;;;;;30.38;17.58;;;;;;;10.29;100.00;93568.44;2120573;27;20031;-72
2022/10/12 04:06:08;;;;;;;32.40;18.42;;;;;;;10.29;100.00;93557.75;2122242;27;20026;-70
2022/10/12 04:07:09;;;;;;;41.00;21.15;;;;;;;10.30;100.00;93575.28;2122331;27;20066;-72
2022/10/12 04:08:10;;;;;;;32.45;18.90;;;;;;;10.23;100.00;93569.28;2121844;27;20448;-72
2022/10/12 04:09:12;;;;;;;41.80;19.92;;;;;;;10.21;100.00;93563.56;2121999;27;20068;-71
2022/10/12 04:10:13;;;;;;;38.35;18.20;;;;;;;10.28;100.00;93561.59;2112726;28;20027;-71
2022/10/12 04:11:15;;;;;;;35.80;19.08;;;;;;;10.26;100.00;93568.47;2109353;28;20028;-73
2022/10/12 04:12:16;;;;;;;25.40;17.50;;;;;;;10.34;100.00;93568.00;2122520;27;20045;-72
2022/10/12 04:13:18;;;;;;;30.98;18.13;;;;;;;10.42;100.00;93565.97;2122341;27;20049;-71
2022/10/12 04:14:19;;;;;;;36.83;18.65;;;;;;;10.35;100.00;93566.06;2122423;27;20038;-72
2022/10/12 04:15:20;;;;;;;29.52;18.70;;;;;;;10.37;100.00;93573.69;2112666;28;20078;-72
2022/10/12 04:16:21;;;;;;;33.97;18.90;;;;;;;10.38;100.00;93567.94;2113029;28;20127;-72
2022/10/12 04:17:22;;;;;;;27.73;18.23;;;;;;;10.30;100.00;93572.63;2122383;27;20038;-72
2022/10/12 04:18:23;;;;;;;35.20;17.90;;;;;;;10.28;100.00;93574.19;2113218;28;20067;-72
2022/10/12 04:19:24;;;;;;;36.17;18.73;;;;;;;10.27;100.00;93573.44;2111318;28;20748;-71
2022/10/12 04:20:24;;;;;;;30.38;18.73;;;;;;;10.26;100.00;93571.16;2116784;27;20020;-71
2022/10/12 04:21:29;;;;;;;34.83;18.83;;;;;;;10.28;100.00;93577.63;2118035;27;20179;-73
2022/10/12 04:22:30;;;;;;;30.90;18.95;;;;;;;10.31;100.00;93578.72;2119160;27;20035;-71
2022/10/12 04:23:31;;;;;;;37.67;18.88;;;;;;;10.42;100.00;93570.56;2119336;27;20031;-71
2022/10/12 04:24:32;;;;;;;28.30;17.77;;;;;;;10.25;100.00;93572.31;2118390;27;20031;-71
2022/10/12 04:25:33;;;;;;;32.55;19.27;;;;;;;10.27;100.00;93568.09;2115543;27;20114;-71
2022/10/12 04:26:34;;;;;;;39.58;18.98;;;;;;;10.22;100.00;93568.50;2117903;27;20019;-72
2022/10/12 04:27:35;;;;;;;30.10;19.10;;;;;;;10.23;100.00;93563.94;2119337;27;20027;-72
2022/10/12 04:28:37;;;;;;;35.40;19.45;;;;;;;10.24;100.00;93576.13;2119787;27;20102;-73
2022/10/12 04:29:38;;;;;;;33.20;18.77;;;;;;;10.14;100.00;93572.44;2119795;27;20043;-71
2022/10/12 04:30:39;;;;;;;34.88;19.35;;;;;;;10.14;100.00;93572.44;2118916;27;20019;-71
2022/10/12 04:31:41;;;;;;;35.80;18.85;;;;;;;10.21;100.00;93572.34;2119039;27;20027;-74
2022/10/12 04:32:42;;;;;;;36.85;18.75;;;;;;;10.17;100.00;93573.53;2119182;27;20023;-71
2022/10/12 04:33:46;;;;;;;28.98;18.17;;;;;;;10.21;100.00;93569.66;2115213;27;20027;-72
2022/10/12 04:34:47;;;;;;;34.05;18.58;;;;;;;10.21;100.00;93576.91;2119197;27;20034;-72
2022/10/12 04:35:48;;;;;;;36.13;19.00;;;;;;;10.17;100.00;93570.88;2119392;27;20646;-71
2022/10/12 04:36:50;;;;;;;36.15;19.25;;;;;;;10.23;100.00;93578.03;2119328;27;20035;-71
2022/10/12 04:37:51;;;;;;;34.35;17.73;;;;;;;10.14;100.00;93574.34;2119559;27;20019;-72
2022/10/12 04:38:52;;;;;;;27.23;18.42;;;;;;;10.17;100.00;93574.28;2119217;27;20027;-72
2022/10/12 04:39:53;;;;;;;34.03;18.63;;;;;;;10.14;100.00;93567.09;2119643;27;20567;-72
2022/10/12 04:40:54;;;;;;;38.00;17.85;;;;;;;10.12;100.00;93568.66;2119938;27;20042;-71
2022/10/12 04:41:55;;;;;;;30.02;17.58;;;;;;;10.16;100.00;93574.72;2118798;27;20027;-72
2022/10/12 04:42:57;;;;;;;29.63;18.40;;;;;;;10.47;100.00;93570.88;2119802;27;20047;-71
2022/10/12 04:43:58;;;;;;;26.35;17.90;;;;;;;10.30;100.00;93569.94;2119636;27;20031;-69
2022/10/12 04:44:59;;;;;;;33.70;17.65;;;;;;;10.31;100.00;93574.13;2119797;27;20023;-70
2022/10/12 04:46:00;;;;;;;33.00;18.15;;;;;;;10.30;100.00;93572.63;2119533;27;20031;-70
2022/10/12 04:47:02;;;;;;;33.28;17.63;;;;;;;10.23;100.00;93570.03;2118920;27;20122;-70
2022/10/12 04:48:03;;;;;;;29.35;17.38;;;;;;;10.17;100.00;93571.63;2119794;27;20031;-69
2022/10/12 04:49:04;;;;;;;32.15;18.55;;;;;;;10.19;100.00;93565.91;2119663;27;20027;-69
2022/10/12 04:50:06;;;;;;;34.08;19.48;;;;;;;10.16;100.00;93570.13;2119517;27;20041;-70
2022/10/12 04:51:07;;;;;;;29.33;18.33;;;;;;;10.24;100.00;93570.78;2119988;27;20140;-71
2022/10/12 04:52:08;;;;;;;35.60;18.77;;;;;;;10.25;100.00;93573.06;2118946;27;20023;-72
2022/10/12 04:53:09;;;;;;;29.85;18.02;;;;;;;10.22;100.00;93573.09;2119546;27;20050;-73
2022/10/12 04:54:10;;;;;;;30.30;17.75;;;;;;;10.18;100.00;93569.69;2110148;28;20028;-71
2022/10/12 04:55:11;;;;;;;28.98;18.10;;;;;;;10.15;100.00;93575.88;2111335;28;20110;-71
2022/10/12 04:56:12;;;;;;;35.35;17.25;;;;;;;10.47;100.00;93573.53;2119943;27;20030;-71